sensor_id;sensor_type;location;lat;lon;timestamp;P1;durP1;ratioP1;P2;durP2;ratioP2
32445;SDS011;18899;50.748;7.102;2023-03-20T00:00:36;41.13;;;22.40;;
32445;SDS011;18899;50.748;7.102;2023-03-20T00:03:05;40.70;;;22.10;;
32445;SDS011;18899;50.748;7.102;2023-03-20T00:05:30;39.90;;;21.90;;
32445;SDS011;18899;50.748;7.102;2023-03-20T00:07:56;41.67;;;22.90;;
32445;SDS011;18899;50.748;7.102;2023-03-20T00:10:28;39.97;;;22.33;;
32445;SDS011;18899;50.748;7.102;2023-03-20T00:12:59;43.40;;;22.25;;
32445;SDS011;18899;50.748;7.102;2023-03-20T00:15:29;38.70;;;21.40;;
32445;SDS011;18899;50.748;7.102;2023-03-20T00:17:56;37.13;;;19.98;;
32445;SDS011;18899;50.748;7.102;2023-03-20T00:20:22;45.33;;;23.13;;
32445;SDS011;18899;50.748;7.102;2023-03-20T00:22:48;38.92;;;20.92;;
32445;SDS011;18899;50.748;7.102;2023-03-20T00:25:15;37.92;;;22.17;;
32445;SDS011;18899;50.748;7.102;2023-03-20T00:27:42;40.00;;;21.95;;
32445;SDS011;18899;50.748;7.102;2023-03-20T00:30:22;37.13;;;20.95;;
32445;SDS011;18899;50.748;7.102;2023-03-20T00:35:22;43.17;;;22.55;;
32445;SDS011;18899;50.748;7.102;2023-03-20T00:37:48;43.35;;;21.42;;
32445;SDS011;18899;50.748;7.102;2023-03-20T00:40:14;45.50;;;22.23;;
32445;SDS011;18899;50.748;7.102;2023-03-20T00:42:40;41.85;;;21.85;;
32445;SDS011;18899;50.748;7.102;2023-03-20T00:45:09;37.85;;;20.98;;
32445;SDS011;18899;50.748;7.102;2023-03-20T00:47:39;39.42;;;22.48;;
32445;SDS011;18899;50.748;7.102;2023-03-20T00:50:06;41.47;;;22.80;;
32445;SDS011;18899;50.748;7.102;2023-03-20T00:52:44;39.25;;;22.27;;
32445;SDS011;18899;50.748;7.102;2023-03-20T00:55:10;43.00;;;23.30;;
32445;SDS011;18899;50.748;7.102;2023-03-20T00:57:41;43.65;;;24.23;;
32445;SDS011;18899;50.748;7.102;2023-03-20T01:00:19;43.33;;;23.45;;
32445;SDS011;18899;50.748;7.102;2023-03-20T01:02:58;49.20;;;23.38;;
32445;SDS011;18899;50.748;7.102;2023-03-20T01:05:25;38.72;;;21.25;;
32445;SDS011;18899;50.748;7.102;2023-03-20T01:07:51;38.47;;;22.88;;
32445;SDS011;18899;50.748;7.102;2023-03-20T01:10:17;42.92;;;21.90;;
32445;SDS011;18899;50.748;7.102;2023-03-20T01:12:43;42.08;;;22.50;;
32445;SDS011;18899;50.748;7.102;2023-03-20T01:15:18;42.03;;;21.25;;
32445;SDS011;18899;50.748;7.102;2023-03-20T01:17:46;38.38;;;20.75;;
32445;SDS011;18899;50.748;7.102;2023-03-20T01:20:13;38.50;;;20.80;;
32445;SDS011;18899;50.748;7.102;2023-03-20T01:22:50;37.95;;;21.30;;
32445;SDS011;18899;50.748;7.102;2023-03-20T01:25:16;36.70;;;19.00;;
32445;SDS011;18899;50.748;7.102;2023-03-20T01:27:45;38.50;;;21.45;;
32445;SDS011;18899;50.748;7.102;2023-03-20T01:30:20;37.35;;;20.23;;
32445;SDS011;18899;50.748;7.102;2023-03-20T01:32:50;36.47;;;19.15;;
32445;SDS011;18899;50.748;7.102;2023-03-20T01:35:18;37.67;;;20.60;;
32445;SDS011;18899;50.748;7.102;2023-03-20T01:37:46;37.47;;;19.63;;
32445;SDS011;18899;50.748;7.102;2023-03-20T01:40:15;35.72;;;18.65;;
32445;SDS011;18899;50.748;7.102;2023-03-20T01:42:54;37.15;;;19.92;;
32445;SDS011;18899;50.748;7.102;2023-03-20T01:45:21;36.50;;;19.27;;
32445;SDS011;18899;50.748;7.102;2023-03-20T01:47:50;34.35;;;17.90;;
32445;SDS011;18899;50.748;7.102;2023-03-20T01:50:29;36.60;;;17.95;;
32445;SDS011;18899;50.748;7.102;2023-03-20T01:53:01;38.22;;;18.40;;
32445;SDS011;18899;50.748;7.102;2023-03-20T01:55:30;36.35;;;17.70;;
32445;SDS011;18899;50.748;7.102;2023-03-20T01:57:57;35.03;;;18.05;;
32445;SDS011;18899;50.748;7.102;2023-03-20T02:00:25;30.33;;;16.63;;
32445;SDS011;18899;50.748;7.102;2023-03-20T02:02:51;37.00;;;18.35;;
32445;SDS011;18899;50.748;7.102;2023-03-20T02:05:19;40.30;;;18.15;;
32445;SDS011;18899;50.748;7.102;2023-03-20T02:07:53;31.83;;;17.92;;
32445;SDS011;18899;50.748;7.102;2023-03-20T02:10:26;29.60;;;16.30;;
32445;SDS011;18899;50.748;7.102;2023-03-20T02:12:52;32.90;;;16.10;;
32445;SDS011;18899;50.748;7.102;2023-03-20T02:15:18;30.92;;;16.48;;
32445;SDS011;18899;50.748;7.102;2023-03-20T02:17:44;32.17;;;16.77;;
32445;SDS011;18899;50.748;7.102;2023-03-20T02:26:06;31.65;;;16.30;;
32445;SDS011;18899;50.748;7.102;2023-03-20T02:35:08;32.25;;;16.08;;
32445;SDS011;18899;50.748;7.102;2023-03-20T02:40:52;29.45;;;15.48;;
32445;SDS011;18899;50.748;7.102;2023-03-20T02:44:00;27.55;;;14.80;;
32445;SDS011;18899;50.748;7.102;2023-03-20T02:46:31;31.55;;;15.68;;
32445;SDS011;18899;50.748;7.102;2023-03-20T02:49:09;26.42;;;14.98;;
32445;SDS011;18899;50.748;7.102;2023-03-20T02:51:59;28.98;;;14.65;;
32445;SDS011;18899;50.748;7.102;2023-03-20T02:57:15;27.65;;;15.25;;
32445;SDS011;18899;50.748;7.102;2023-03-20T02:59:54;26.10;;;14.07;;
32445;SDS011;18899;50.748;7.102;2023-03-20T03:02:35;28.00;;;14.48;;
32445;SDS011;18899;50.748;7.102;2023-03-20T03:05:07;31.30;;;15.02;;
32445;SDS011;18899;50.748;7.102;2023-03-20T03:07:37;31.65;;;14.30;;
32445;SDS011;18899;50.748;7.102;2023-03-20T03:10:08;32.58;;;14.90;;
32445;SDS011;18899;50.748;7.102;2023-03-20T03:12:40;33.08;;;15.60;;
32445;SDS011;18899;50.748;7.102;2023-03-20T03:15:15;27.95;;;14.02;;
32445;SDS011;18899;50.748;7.102;2023-03-20T03:17:47;28.73;;;14.23;;
32445;SDS011;18899;50.748;7.102;2023-03-20T03:20:17;24.75;;;13.93;;
32445;SDS011;18899;50.748;7.102;2023-03-20T03:22:49;26.58;;;14.70;;
32445;SDS011;18899;50.748;7.102;2023-03-20T03:25:15;33.72;;;16.30;;
32445;SDS011;18899;50.748;7.102;2023-03-20T03:27:41;28.65;;;14.52;;
32445;SDS011;18899;50.748;7.102;2023-03-20T03:32:45;30.55;;;14.38;;
32445;SDS011;18899;50.748;7.102;2023-03-20T03:35:14;29.15;;;15.02;;
32445;SDS011;18899;50.748;7.102;2023-03-20T03:37:47;26.40;;;14.98;;
32445;SDS011;18899;50.748;7.102;2023-03-20T03:43:13;28.58;;;14.75;;
32445;SDS011;18899;50.748;7.102;2023-03-20T03:46:05;31.38;;;14.25;;
32445;SDS011;18899;50.748;7.102;2023-03-20T03:48:48;33.45;;;15.55;;
32445;SDS011;18899;50.748;7.102;2023-03-20T03:51:25;29.77;;;14.63;;
32445;SDS011;18899;50.748;7.102;2023-03-20T03:53:55;29.63;;;14.32;;
32445;SDS011;18899;50.748;7.102;2023-03-20T03:56:26;29.23;;;14.43;;
32445;SDS011;18899;50.748;7.102;2023-03-20T03:58:59;24.85;;;14.05;;
32445;SDS011;18899;50.748;7.102;2023-03-20T04:01:28;27.08;;;14.93;;
32445;SDS011;18899;50.748;7.102;2023-03-20T04:03:59;29.02;;;14.10;;
32445;SDS011;18899;50.748;7.102;2023-03-20T04:06:27;29.40;;;15.13;;
32445;SDS011;18899;50.748;7.102;2023-03-20T04:08:54;32.03;;;15.60;;
32445;SDS011;18899;50.748;7.102;2023-03-20T04:11:20;32.30;;;15.10;;
32445;SDS011;18899;50.748;7.102;2023-03-20T04:13:48;27.13;;;14.70;;
32445;SDS011;18899;50.748;7.102;2023-03-20T04:16:15;36.53;;;16.52;;
32445;SDS011;18899;50.748;7.102;2023-03-20T04:18:42;29.20;;;15.50;;
32445;SDS011;18899;50.748;7.102;2023-03-20T04:21:08;33.97;;;15.00;;
32445;SDS011;18899;50.748;7.102;2023-03-20T04:23:33;33.83;;;15.88;;
32445;SDS011;18899;50.748;7.102;2023-03-20T04:25:59;27.67;;;14.70;;
32445;SDS011;18899;50.748;7.102;2023-03-20T04:28:26;32.08;;;15.02;;
32445;SDS011;18899;50.748;7.102;2023-03-20T04:30:52;28.75;;;14.57;;
32445;SDS011;18899;50.748;7.102;2023-03-20T04:33:19;31.85;;;14.70;;
32445;SDS011;18899;50.748;7.102;2023-03-20T04:35:45;30.42;;;15.55;;
32445;SDS011;18899;50.748;7.102;2023-03-20T04:38:11;32.85;;;15.63;;
32445;SDS011;18899;50.748;7.102;2023-03-20T04:40:37;30.25;;;14.85;;
32445;SDS011;18899;50.748;7.102;2023-03-20T04:43:03;30.20;;;15.57;;
32445;SDS011;18899;50.748;7.102;2023-03-20T04:45:28;31.95;;;16.08;;
32445;SDS011;18899;50.748;7.102;2023-03-20T04:47:54;30.67;;;14.77;;
32445;SDS011;18899;50.748;7.102;2023-03-20T04:50:20;32.65;;;15.93;;
32445;SDS011;18899;50.748;7.102;2023-03-20T04:52:45;33.28;;;15.63;;
32445;SDS011;18899;50.748;7.102;2023-03-20T04:55:11;32.45;;;15.35;;
32445;SDS011;18899;50.748;7.102;2023-03-20T04:57:36;36.55;;;16.38;;
32445;SDS011;18899;50.748;7.102;2023-03-20T05:00:02;33.22;;;16.73;;
32445;SDS011;18899;50.748;7.102;2023-03-20T05:02:29;32.33;;;16.08;;
32445;SDS011;18899;50.748;7.102;2023-03-20T05:04:54;30.50;;;15.82;;
32445;SDS011;18899;50.748;7.102;2023-03-20T05:07:20;30.52;;;16.33;;
32445;SDS011;18899;50.748;7.102;2023-03-20T05:09:45;31.65;;;15.60;;
32445;SDS011;18899;50.748;7.102;2023-03-20T05:12:11;28.65;;;15.35;;
32445;SDS011;18899;50.748;7.102;2023-03-20T05:14:36;31.95;;;16.00;;
32445;SDS011;18899;50.748;7.102;2023-03-20T05:17:02;31.77;;;16.42;;
32445;SDS011;18899;50.748;7.102;2023-03-20T05:19:27;29.27;;;15.15;;
32445;SDS011;18899;50.748;7.102;2023-03-20T05:21:53;31.88;;;16.58;;
32445;SDS011;18899;50.748;7.102;2023-03-20T05:24:19;31.90;;;16.50;;
32445;SDS011;18899;50.748;7.102;2023-03-20T05:26:45;32.10;;;15.02;;
32445;SDS011;18899;50.748;7.102;2023-03-20T05:29:11;31.05;;;16.30;;
32445;SDS011;18899;50.748;7.102;2023-03-20T05:31:36;34.30;;;15.68;;
32445;SDS011;18899;50.748;7.102;2023-03-20T05:34:02;29.45;;;15.68;;
32445;SDS011;18899;50.748;7.102;2023-03-20T05:36:29;28.80;;;15.27;;
32445;SDS011;18899;50.748;7.102;2023-03-20T05:38:55;29.63;;;15.30;;
32445;SDS011;18899;50.748;7.102;2023-03-20T05:41:21;32.35;;;14.77;;
32445;SDS011;18899;50.748;7.102;2023-03-20T05:43:46;35.28;;;15.82;;
32445;SDS011;18899;50.748;7.102;2023-03-20T05:46:12;32.83;;;15.45;;
32445;SDS011;18899;50.748;7.102;2023-03-20T05:48:38;29.70;;;15.50;;
32445;SDS011;18899;50.748;7.102;2023-03-20T05:51:03;32.90;;;15.82;;
32445;SDS011;18899;50.748;7.102;2023-03-20T05:53:29;28.42;;;14.15;;
32445;SDS011;18899;50.748;7.102;2023-03-20T05:55:55;30.05;;;14.73;;
32445;SDS011;18899;50.748;7.102;2023-03-20T05:58:21;28.42;;;14.88;;
32445;SDS011;18899;50.748;7.102;2023-03-20T06:00:46;30.65;;;14.90;;
32445;SDS011;18899;50.748;7.102;2023-03-20T06:03:12;30.42;;;15.52;;
32445;SDS011;18899;50.748;7.102;2023-03-20T06:05:37;29.65;;;14.70;;
32445;SDS011;18899;50.748;7.102;2023-03-20T06:08:03;25.63;;;14.35;;
32445;SDS011;18899;50.748;7.102;2023-03-20T06:10:29;32.10;;;15.63;;
32445;SDS011;18899;50.748;7.102;2023-03-20T06:12:56;28.40;;;14.52;;
32445;SDS011;18899;50.748;7.102;2023-03-20T06:15:24;30.77;;;14.95;;
32445;SDS011;18899;50.748;7.102;2023-03-20T06:17:52;27.15;;;14.38;;
32445;SDS011;18899;50.748;7.102;2023-03-20T06:20:18;29.77;;;14.20;;
32445;SDS011;18899;50.748;7.102;2023-03-20T06:22:44;31.38;;;14.68;;
32445;SDS011;18899;50.748;7.102;2023-03-20T06:25:10;27.77;;;14.38;;
32445;SDS011;18899;50.748;7.102;2023-03-20T06:27:35;28.10;;;13.90;;
32445;SDS011;18899;50.748;7.102;2023-03-20T06:30:01;28.95;;;14.77;;
32445;SDS011;18899;50.748;7.102;2023-03-20T06:32:27;31.48;;;14.23;;
32445;SDS011;18899;50.748;7.102;2023-03-20T06:34:52;29.10;;;14.40;;
32445;SDS011;18899;50.748;7.102;2023-03-20T06:37:18;24.58;;;13.25;;
32445;SDS011;18899;50.748;7.102;2023-03-20T06:39:44;25.10;;;14.45;;
32445;SDS011;18899;50.748;7.102;2023-03-20T06:42:10;31.02;;;14.80;;
32445;SDS011;18899;50.748;7.102;2023-03-20T06:44:36;29.92;;;14.77;;
32445;SDS011;18899;50.748;7.102;2023-03-20T06:47:02;25.52;;;13.82;;
32445;SDS011;18899;50.748;7.102;2023-03-20T06:49:28;29.23;;;14.38;;
32445;SDS011;18899;50.748;7.102;2023-03-20T06:51:54;32.78;;;14.88;;
32445;SDS011;18899;50.748;7.102;2023-03-20T06:54:19;31.15;;;13.75;;
32445;SDS011;18899;50.748;7.102;2023-03-20T06:56:45;24.27;;;13.25;;
32445;SDS011;18899;50.748;7.102;2023-03-20T06:59:10;26.23;;;12.73;;
32445;SDS011;18899;50.748;7.102;2023-03-20T07:01:36;24.38;;;12.85;;
32445;SDS011;18899;50.748;7.102;2023-03-20T07:04:02;22.52;;;11.82;;
32445;SDS011;18899;50.748;7.102;2023-03-20T07:06:27;19.55;;;11.07;;
32445;SDS011;18899;50.748;7.102;2023-03-20T07:08:53;21.45;;;11.25;;
32445;SDS011;18899;50.748;7.102;2023-03-20T07:11:18;18.40;;;11.13;;
32445;SDS011;18899;50.748;7.102;2023-03-20T07:13:45;20.80;;;11.50;;
32445;SDS011;18899;50.748;7.102;2023-03-20T07:16:10;20.95;;;11.30;;
32445;SDS011;18899;50.748;7.102;2023-03-20T07:18:36;19.35;;;11.57;;
32445;SDS011;18899;50.748;7.102;2023-03-20T07:21:02;22.83;;;11.88;;
32445;SDS011;18899;50.748;7.102;2023-03-20T07:23:30;18.85;;;10.23;;
32445;SDS011;18899;50.748;7.102;2023-03-20T07:25:56;22.60;;;11.48;;
32445;SDS011;18899;50.748;7.102;2023-03-20T07:28:22;25.52;;;12.20;;
32445;SDS011;18899;50.748;7.102;2023-03-20T07:30:48;22.77;;;11.38;;
32445;SDS011;18899;50.748;7.102;2023-03-20T07:33:13;21.23;;;11.27;;
32445;SDS011;18899;50.748;7.102;2023-03-20T07:35:39;20.27;;;11.43;;
32445;SDS011;18899;50.748;7.102;2023-03-20T07:38:05;18.65;;;10.00;;
32445;SDS011;18899;50.748;7.102;2023-03-20T07:40:31;15.52;;;9.75;;
32445;SDS011;18899;50.748;7.102;2023-03-20T07:42:56;14.73;;;8.98;;
32445;SDS011;18899;50.748;7.102;2023-03-20T07:45:22;16.90;;;8.38;;
32445;SDS011;18899;50.748;7.102;2023-03-20T07:47:48;13.20;;;8.23;;
32445;SDS011;18899;50.748;7.102;2023-03-20T07:50:15;12.77;;;8.15;;
32445;SDS011;18899;50.748;7.102;2023-03-20T07:52:44;18.15;;;9.07;;
32445;SDS011;18899;50.748;7.102;2023-03-20T07:55:11;13.80;;;8.88;;
32445;SDS011;18899;50.748;7.102;2023-03-20T07:57:37;15.63;;;8.80;;
32445;SDS011;18899;50.748;7.102;2023-03-20T08:00:02;14.35;;;7.75;;
32445;SDS011;18899;50.748;7.102;2023-03-20T08:02:28;13.63;;;7.63;;
32445;SDS011;18899;50.748;7.102;2023-03-20T08:04:54;11.88;;;7.93;;
32445;SDS011;18899;50.748;7.102;2023-03-20T08:07:20;18.08;;;8.52;;
32445;SDS011;18899;50.748;7.102;2023-03-20T08:09:48;15.23;;;7.47;;
32445;SDS011;18899;50.748;7.102;2023-03-20T08:12:13;12.63;;;8.05;;
32445;SDS011;18899;50.748;7.102;2023-03-20T08:14:40;14.13;;;8.38;;
32445;SDS011;18899;50.748;7.102;2023-03-20T08:17:07;13.95;;;7.85;;
32445;SDS011;18899;50.748;7.102;2023-03-20T08:19:33;11.98;;;7.60;;
32445;SDS011;18899;50.748;7.102;2023-03-20T08:21:58;12.68;;;7.70;;
32445;SDS011;18899;50.748;7.102;2023-03-20T08:24:24;12.75;;;7.50;;
32445;SDS011;18899;50.748;7.102;2023-03-20T08:26:50;12.63;;;6.90;;
32445;SDS011;18899;50.748;7.102;2023-03-20T08:29:16;13.95;;;7.40;;
32445;SDS011;18899;50.748;7.102;2023-03-20T08:31:43;15.10;;;7.22;;
32445;SDS011;18899;50.748;7.102;2023-03-20T08:34:09;12.27;;;7.25;;
32445;SDS011;18899;50.748;7.102;2023-03-20T08:36:34;13.95;;;7.53;;
32445;SDS011;18899;50.748;7.102;2023-03-20T08:39:00;12.35;;;7.15;;
32445;SDS011;18899;50.748;7.102;2023-03-20T08:41:26;11.10;;;6.38;;
32445;SDS011;18899;50.748;7.102;2023-03-20T08:43:51;15.00;;;7.00;;
32445;SDS011;18899;50.748;7.102;2023-03-20T08:46:17;12.15;;;5.53;;
32445;SDS011;18899;50.748;7.102;2023-03-20T08:48:42;7.68;;;4.82;;
32445;SDS011;18899;50.748;7.102;2023-03-20T08:51:08;12.07;;;6.10;;
32445;SDS011;18899;50.748;7.102;2023-03-20T08:53:33;12.63;;;6.50;;
32445;SDS011;18899;50.748;7.102;2023-03-20T08:55:59;10.98;;;5.95;;
32445;SDS011;18899;50.748;7.102;2023-03-20T08:58:25;11.95;;;5.88;;
32445;SDS011;18899;50.748;7.102;2023-03-20T09:00:51;10.40;;;5.18;;
32445;SDS011;18899;50.748;7.102;2023-03-20T09:03:18;9.35;;;4.97;;
32445;SDS011;18899;50.748;7.102;2023-03-20T09:05:45;10.13;;;4.68;;
32445;SDS011;18899;50.748;7.102;2023-03-20T09:08:15;9.27;;;4.97;;
32445;SDS011;18899;50.748;7.102;2023-03-20T09:10:42;7.20;;;3.25;;
32445;SDS011;18899;50.748;7.102;2023-03-20T09:13:08;9.18;;;3.25;;
32445;SDS011;18899;50.748;7.102;2023-03-20T09:15:34;13.95;;;4.18;;
32445;SDS011;18899;50.748;7.102;2023-03-20T09:18:00;10.00;;;3.70;;
32445;SDS011;18899;50.748;7.102;2023-03-20T09:20:25;8.65;;;3.58;;
32445;SDS011;18899;50.748;7.102;2023-03-20T09:22:51;7.05;;;3.42;;
32445;SDS011;18899;50.748;7.102;2023-03-20T09:25:17;8.68;;;3.60;;
32445;SDS011;18899;50.748;7.102;2023-03-20T09:27:42;10.90;;;4.03;;
32445;SDS011;18899;50.748;7.102;2023-03-20T09:30:08;7.82;;;3.45;;
32445;SDS011;18899;50.748;7.102;2023-03-20T09:32:35;6.45;;;3.47;;
32445;SDS011;18899;50.748;7.102;2023-03-20T09:35:01;7.50;;;3.30;;
32445;SDS011;18899;50.748;7.102;2023-03-20T09:37:27;7.82;;;3.10;;
32445;SDS011;18899;50.748;7.102;2023-03-20T09:39:52;9.18;;;2.97;;
32445;SDS011;18899;50.748;7.102;2023-03-20T09:42:24;6.63;;;3.28;;
32445;SDS011;18899;50.748;7.102;2023-03-20T09:53:36;10.43;;;3.17;;
32445;SDS011;18899;50.748;7.102;2023-03-20T09:56:08;12.73;;;4.05;;
32445;SDS011;18899;50.748;7.102;2023-03-20T09:58:41;7.65;;;4.15;;
32445;SDS011;18899;50.748;7.102;2023-03-20T10:01:10;10.85;;;4.28;;
32445;SDS011;18899;50.748;7.102;2023-03-20T10:03:41;9.45;;;3.50;;
32445;SDS011;18899;50.748;7.102;2023-03-20T10:06:25;9.38;;;3.95;;
32445;SDS011;18899;50.748;7.102;2023-03-20T10:08:51;8.77;;;3.60;;
32445;SDS011;18899;50.748;7.102;2023-03-20T10:16:55;6.60;;;3.67;;
32445;SDS011;18899;50.748;7.102;2023-03-20T10:19:41;9.30;;;4.00;;
32445;SDS011;18899;50.748;7.102;2023-03-20T10:22:25;8.75;;;3.85;;
32445;SDS011;18899;50.748;7.102;2023-03-20T10:24:58;10.18;;;3.78;;
32445;SDS011;18899;50.748;7.102;2023-03-20T10:27:51;8.40;;;4.47;;
32445;SDS011;18899;50.748;7.102;2023-03-20T10:35:46;9.98;;;4.15;;
32445;SDS011;18899;50.748;7.102;2023-03-20T10:38:25;7.35;;;4.00;;
32445;SDS011;18899;50.748;7.102;2023-03-20T10:41:18;8.80;;;3.85;;
32445;SDS011;18899;50.748;7.102;2023-03-20T10:43:47;7.55;;;4.18;;
32445;SDS011;18899;50.748;7.102;2023-03-20T10:46:22;9.75;;;4.18;;
32445;SDS011;18899;50.748;7.102;2023-03-20T10:48:57;8.52;;;4.25;;
32445;SDS011;18899;50.748;7.102;2023-03-20T10:54:35;11.18;;;4.00;;
32445;SDS011;18899;50.748;7.102;2023-03-20T10:57:04;7.13;;;3.53;;
32445;SDS011;18899;50.748;7.102;2023-03-20T10:59:39;7.43;;;3.88;;
32445;SDS011;18899;50.748;7.102;2023-03-20T11:02:09;8.00;;;3.40;;
32445;SDS011;18899;50.748;7.102;2023-03-20T11:04:36;9.60;;;3.63;;
32445;SDS011;18899;50.748;7.102;2023-03-20T11:12:36;8.23;;;3.85;;
32445;SDS011;18899;50.748;7.102;2023-03-20T11:17:56;7.43;;;2.87;;
32445;SDS011;18899;50.748;7.102;2023-03-20T11:20:25;8.27;;;2.78;;
32445;SDS011;18899;50.748;7.102;2023-03-20T11:22:57;8.68;;;3.05;;
32445;SDS011;18899;50.748;7.102;2023-03-20T11:25:33;6.97;;;2.80;;
32445;SDS011;18899;50.748;7.102;2023-03-20T11:28:18;5.93;;;2.75;;
32445;SDS011;18899;50.748;7.102;2023-03-20T11:30:49;7.13;;;3.08;;
32445;SDS011;18899;50.748;7.102;2023-03-20T11:33:26;6.32;;;2.85;;
32445;SDS011;18899;50.748;7.102;2023-03-20T11:35:54;7.53;;;3.60;;
32445;SDS011;18899;50.748;7.102;2023-03-20T11:38:21;4.97;;;2.75;;
32445;SDS011;18899;50.748;7.102;2023-03-20T11:40:48;8.05;;;3.83;;
32445;SDS011;18899;50.748;7.102;2023-03-20T11:43:20;10.35;;;3.15;;
32445;SDS011;18899;50.748;7.102;2023-03-20T11:45:57;5.32;;;2.85;;
32445;SDS011;18899;50.748;7.102;2023-03-20T11:48:45;8.25;;;3.15;;
32445;SDS011;18899;50.748;7.102;2023-03-20T11:51:13;6.97;;;2.70;;
32445;SDS011;18899;50.748;7.102;2023-03-20T11:56:12;6.35;;;2.90;;
32445;SDS011;18899;50.748;7.102;2023-03-20T11:59:13;6.18;;;2.95;;
32445;SDS011;18899;50.748;7.102;2023-03-20T12:01:47;7.13;;;2.95;;
32445;SDS011;18899;50.748;7.102;2023-03-20T12:06:58;4.35;;;2.22;;
32445;SDS011;18899;50.748;7.102;2023-03-20T12:09:36;6.72;;;2.22;;
32445;SDS011;18899;50.748;7.102;2023-03-20T12:12:12;5.40;;;2.42;;
32445;SDS011;18899;50.748;7.102;2023-03-20T12:20:00;5.28;;;1.67;;
32445;SDS011;18899;50.748;7.102;2023-03-20T12:22:36;5.90;;;1.90;;
32445;SDS011;18899;50.748;7.102;2023-03-20T12:25:24;7.50;;;2.10;;
32445;SDS011;18899;50.748;7.102;2023-03-20T12:28:02;3.53;;;1.55;;
32445;SDS011;18899;50.748;7.102;2023-03-20T12:33:53;4.73;;;1.80;;
32445;SDS011;18899;50.748;7.102;2023-03-20T12:36:16;6.28;;;1.45;;
32445;SDS011;18899;50.748;7.102;2023-03-20T12:38:49;5.55;;;1.60;;
32445;SDS011;18899;50.748;7.102;2023-03-20T12:41:19;3.35;;;1.45;;
32445;SDS011;18899;50.748;7.102;2023-03-20T12:47:04;4.28;;;1.50;;
32445;SDS011;18899;50.748;7.102;2023-03-20T12:49:44;6.47;;;1.70;;
32445;SDS011;18899;50.748;7.102;2023-03-20T12:52:41;4.75;;;1.20;;
32445;SDS011;18899;50.748;7.102;2023-03-20T13:01:05;5.45;;;1.50;;
32445;SDS011;18899;50.748;7.102;2023-03-20T13:06:40;5.40;;;1.65;;
32445;SDS011;18899;50.748;7.102;2023-03-20T13:17:38;6.38;;;1.70;;
32445;SDS011;18899;50.748;7.102;2023-03-20T13:22:47;6.25;;;1.00;;
32445;SDS011;18899;50.748;7.102;2023-03-20T13:36:12;8.95;;;1.92;;
32445;SDS011;18899;50.748;7.102;2023-03-20T13:38:41;5.85;;;1.48;;
32445;SDS011;18899;50.748;7.102;2023-03-20T13:41:11;6.30;;;1.73;;
32445;SDS011;18899;50.748;7.102;2023-03-20T13:46:08;4.68;;;1.40;;
32445;SDS011;18899;50.748;7.102;2023-03-20T13:48:40;5.63;;;1.42;;
32445;SDS011;18899;50.748;7.102;2023-03-20T13:51:09;5.35;;;1.33;;
32445;SDS011;18899;50.748;7.102;2023-03-20T13:53:54;7.13;;;1.65;;
32445;SDS011;18899;50.748;7.102;2023-03-20T14:05:18;3.42;;;1.25;;
32445;SDS011;18899;50.748;7.102;2023-03-20T14:07:47;4.53;;;1.50;;
32445;SDS011;18899;50.748;7.102;2023-03-20T14:15:14;6.07;;;1.70;;
32445;SDS011;18899;50.748;7.102;2023-03-20T14:17:43;6.07;;;1.33;;
32445;SDS011;18899;50.748;7.102;2023-03-20T14:20:14;4.85;;;1.33;;
32445;SDS011;18899;50.748;7.102;2023-03-20T14:22:44;6.03;;;1.38;;
32445;SDS011;18899;50.748;7.102;2023-03-20T14:25:15;4.18;;;1.20;;
32445;SDS011;18899;50.748;7.102;2023-03-20T14:27:53;6.70;;;1.47;;
32445;SDS011;18899;50.748;7.102;2023-03-20T14:35:29;7.22;;;1.83;;
32445;SDS011;18899;50.748;7.102;2023-03-20T14:38:21;7.85;;;1.88;;
32445;SDS011;18899;50.748;7.102;2023-03-20T14:40:52;9.05;;;1.80;;
32445;SDS011;18899;50.748;7.102;2023-03-20T14:43:32;5.63;;;1.50;;
32445;SDS011;18899;50.748;7.102;2023-03-20T14:49:01;5.55;;;1.42;;
32445;SDS011;18899;50.748;7.102;2023-03-20T14:51:44;6.25;;;1.52;;
32445;SDS011;18899;50.748;7.102;2023-03-20T14:54:21;4.53;;;1.50;;
32445;SDS011;18899;50.748;7.102;2023-03-20T14:56:54;8.52;;;1.60;;
32445;SDS011;18899;50.748;7.102;2023-03-20T14:59:31;5.53;;;1.50;;
32445;SDS011;18899;50.748;7.102;2023-03-20T15:01:57;10.63;;;1.45;;
32445;SDS011;18899;50.748;7.102;2023-03-20T15:04:29;7.00;;;1.45;;
32445;SDS011;18899;50.748;7.102;2023-03-20T15:07:03;5.97;;;1.33;;
32445;SDS011;18899;50.748;7.102;2023-03-20T15:09:52;9.50;;;1.67;;
32445;SDS011;18899;50.748;7.102;2023-03-20T15:12:22;5.75;;;1.83;;
32445;SDS011;18899;50.748;7.102;2023-03-20T15:17:19;7.28;;;1.75;;
32445;SDS011;18899;50.748;7.102;2023-03-20T15:19:47;8.30;;;1.88;;
32445;SDS011;18899;50.748;7.102;2023-03-20T15:22:14;8.45;;;1.70;;
32445;SDS011;18899;50.748;7.102;2023-03-20T15:24:41;5.03;;;1.65;;
32445;SDS011;18899;50.748;7.102;2023-03-20T15:27:15;5.40;;;1.60;;
32445;SDS011;18899;50.748;7.102;2023-03-20T15:29:43;7.95;;;1.40;;
32445;SDS011;18899;50.748;7.102;2023-03-20T15:32:13;11.20;;;1.70;;
32445;SDS011;18899;50.748;7.102;2023-03-20T15:34:39;6.43;;;1.60;;
32445;SDS011;18899;50.748;7.102;2023-03-20T15:37:07;9.98;;;1.70;;
32445;SDS011;18899;50.748;7.102;2023-03-20T15:39:42;14.68;;;2.10;;
32445;SDS011;18899;50.748;7.102;2023-03-20T15:42:14;4.18;;;1.48;;
32445;SDS011;18899;50.748;7.102;2023-03-20T15:44:43;10.60;;;1.98;;
32445;SDS011;18899;50.748;7.102;2023-03-20T15:47:15;7.50;;;1.85;;
32445;SDS011;18899;50.748;7.102;2023-03-20T15:49:56;4.78;;;2.13;;
32445;SDS011;18899;50.748;7.102;2023-03-20T15:52:42;9.73;;;1.83;;
32445;SDS011;18899;50.748;7.102;2023-03-20T15:55:17;9.38;;;1.80;;
32445;SDS011;18899;50.748;7.102;2023-03-20T15:57:44;8.10;;;1.92;;
32445;SDS011;18899;50.748;7.102;2023-03-20T16:02:53;6.53;;;1.80;;
32445;SDS011;18899;50.748;7.102;2023-03-20T16:05:20;9.52;;;2.38;;
32445;SDS011;18899;50.748;7.102;2023-03-20T16:07:49;5.32;;;1.42;;
32445;SDS011;18899;50.748;7.102;2023-03-20T16:10:20;7.57;;;1.95;;
32445;SDS011;18899;50.748;7.102;2023-03-20T16:12:58;11.60;;;1.75;;
32445;SDS011;18899;50.748;7.102;2023-03-20T16:15:25;10.07;;;1.88;;
32445;SDS011;18899;50.748;7.102;2023-03-20T16:17:56;8.65;;;2.00;;
32445;SDS011;18899;50.748;7.102;2023-03-20T16:20:24;9.05;;;1.70;;
32445;SDS011;18899;50.748;7.102;2023-03-20T16:22:59;7.07;;;2.05;;
32445;SDS011;18899;50.748;7.102;2023-03-20T16:25:26;9.00;;;1.90;;
32445;SDS011;18899;50.748;7.102;2023-03-20T16:27:52;10.68;;;2.00;;
32445;SDS011;18899;50.748;7.102;2023-03-20T16:30:23;8.05;;;1.88;;
32445;SDS011;18899;50.748;7.102;2023-03-20T16:33:03;4.43;;;1.70;;
32445;SDS011;18899;50.748;7.102;2023-03-20T16:35:37;7.78;;;1.75;;
32445;SDS011;18899;50.748;7.102;2023-03-20T16:38:13;7.38;;;2.22;;
32445;SDS011;18899;50.748;7.102;2023-03-20T16:40:53;6.68;;;1.85;;
32445;SDS011;18899;50.748;7.102;2023-03-20T16:43:24;10.73;;;2.10;;
32445;SDS011;18899;50.748;7.102;2023-03-20T16:45:54;12.63;;;2.45;;
32445;SDS011;18899;50.748;7.102;2023-03-20T16:48:30;11.10;;;1.83;;
32445;SDS011;18899;50.748;7.102;2023-03-20T16:51:01;10.98;;;1.80;;
32445;SDS011;18899;50.748;7.102;2023-03-20T16:53:44;8.55;;;1.83;;
32445;SDS011;18899;50.748;7.102;2023-03-20T16:56:12;8.45;;;1.95;;
32445;SDS011;18899;50.748;7.102;2023-03-20T16:58:40;8.07;;;1.52;;
32445;SDS011;18899;50.748;7.102;2023-03-20T17:01:13;6.78;;;1.83;;
32445;SDS011;18899;50.748;7.102;2023-03-20T17:06:08;9.07;;;2.00;;